Time;durP1;ratioP1;P1;durP2;ratioP2;P2;SDS_P1;SDS_P2;PMS_P1;PMS_P2;Temp;Humidity;BMP_temperature;BMP_pressure;BME280_temperature;BME280_humidity;BME280_pressure;Samples;Min_cycle;Max_cycle;Signal;HPM_P1;HPM_P2
2021/11/02 00:00:40;;;;;;;47.70;44.07;;;;;;;5.97;100.00;99865.30;1913834;74;39794;-71
2021/11/02 00:06:05;;;;;;;45.83;42.23;;;;;;;6.06;100.00;99873.28;1774086;79;86599;-72
2021/11/02 00:11:29;;;;;;;48.67;45.03;;;;;;;5.63;100.00;99882.13;1888685;74;39792;-72
2021/11/02 00:17:11;;;;;;;45.33;42.10;;;;;;;5.52;100.00;99876.36;1783448;78;86635;-68
2021/11/02 00:22:34;;;;;;;48.80;45.30;;;;;;;5.33;100.00;99872.77;1913691;74;39701;-69
2021/11/02 00:28:00;;;;;;;46.77;43.37;;;;;;;5.38;100.00;99877.45;1903649;74;86528;-68
2021/11/02 00:33:25;;;;;;;49.33;46.10;;;;;;;5.27;100.00;99875.22;1916442;74;39585;-71
2021/11/02 00:38:49;;;;;;;47.23;44.00;;;;;;;5.47;100.00;99882.14;1902139;73;86320;-68
2021/11/02 00:44:15;;;;;;;47.83;44.20;;;;;;;5.71;100.00;99876.05;1918988;74;39442;-68
2021/11/02 00:49:40;;;;;;;48.43;45.13;;;;;;;5.63;100.00;99880.20;1914044;74;39478;-68
2021/11/02 00:55:07;;;;;;;50.13;46.43;;;;;;;5.39;100.00;99873.60;1781051;79;87001;-68
2021/11/02 01:00:32;;;;;;;49.30;45.77;;;;;;;5.25;100.00;99878.82;1885299;74;39825;-72
2021/11/02 01:05:57;;;;;;;46.37;42.97;;;;;;;5.20;100.00;99886.23;1905473;74;86120;-69
2021/11/02 01:11:24;;;;;;;49.43;46.13;;;;;;;5.21;100.00;99884.59;1890000;74;39657;-68
2021/11/02 01:16:48;;;;;;;48.77;45.13;;;;;;;5.03;100.00;99886.48;1902001;75;86054;-69
2021/11/02 01:22:15;;;;;;;49.47;46.03;;;;;;;5.05;100.00;99889.78;1918060;74;39426;-72
2021/11/02 01:27:41;;;;;;;50.90;47.20;;;;;;;5.27;100.00;99884.86;1914020;74;39664;-72
2021/11/02 01:33:09;;;;;;;48.40;44.53;;;;;;;5.28;100.00;99898.08;1954635;70;86404;-68
2021/11/02 01:38:34;;;;;;;48.17;44.87;;;;;;;5.28;100.00;99903.04;1914837;74;39595;-71
2021/11/02 01:43:59;;;;;;;48.07;44.80;;;;;;;5.03;100.00;99904.38;1903656;74;86321;-68
2021/11/02 01:49:26;;;;;;;49.23;45.50;;;;;;;5.16;100.00;99913.48;1916694;74;39604;-71
2021/11/02 01:54:50;;;;;;;48.97;45.30;;;;;;;5.08;100.00;99914.57;1901934;73;86782;-68
2021/11/02 02:00:18;;;;;;;49.30;45.63;;;;;;;5.00;100.00;99907.14;1893245;74;39528;-72
2021/11/02 02:05:50;;;;;;;46.73;43.43;;;;;;;4.96;100.00;99907.95;1902035;73;86302;-72
2021/11/02 02:11:21;;;;;;;46.70;43.30;;;;;;;5.00;100.00;99911.81;1918820;74;39495;-68
2021/11/02 02:13:55;;;;;;;47.30;43.93;;;;;;;5.05;100.00;99917.30;1864024;76;934651;-66
2021/11/02 02:16:29;;;;;;;46.35;43.25;;;;;;;5.01;100.00;99913.44;1851714;76;936707;-66
2021/11/02 02:24:58;;;;;;;46.47;43.00;;;;;;;5.28;100.00;99904.97;1915352;75;86546;-69
2021/11/02 02:27:35;;;;;;;46.00;42.80;;;;;;;5.22;100.00;99914.33;1819512;77;934696;-70
2021/11/02 02:33:04;;;;;;;46.80;43.43;;;;;;;5.29;100.00;99906.08;1825437;76;86676;-68
2021/11/02 02:38:37;;;;;;;47.00;43.60;;;;;;;5.09;100.00;99911.56;1914739;74;39657;-68
2021/11/02 02:44:05;;;;;;;46.47;42.90;;;;;;;4.91;100.00;99901.05;1796233;78;86570;-68
2021/11/02 02:49:31;;;;;;;47.83;44.47;;;;;;;5.02;100.00;99904.92;1888341;74;39474;-68
2021/11/02 02:54:59;;;;;;;48.07;44.57;;;;;;;5.02;100.00;99899.42;1903838;74;85568;-72
2021/11/02 03:00:25;;;;;;;48.33;44.57;;;;;;;4.94;100.00;99899.12;1888375;74;39602;-72
2021/11/02 03:05:53;;;;;;;47.57;44.03;;;;;;;5.13;100.00;99910.45;1902050;74;86065;-71
2021/11/02 03:11:19;;;;;;;48.00;44.80;;;;;;;4.78;100.00;99902.94;1918627;74;39643;-68
2021/11/02 03:48:56;;;;;;;48.57;44.77;;;;;;;4.87;100.00;99913.70;1914012;74;74289;-71
2021/11/02 03:54:39;;;;;;;48.97;45.37;;;;;;;4.81;100.00;99921.64;1918123;74;39548;-70
2021/11/02 04:00:30;;;;;;;48.27;44.77;;;;;;;4.46;100.00;99921.78;1785242;79;86276;-71
2021/11/02 04:23:36;;;;;;;45.63;42.33;;;;;;;4.35;100.00;99932.45;1918799;74;39575;-71
2021/11/02 04:58:22;;;;;;;45.90;42.40;;;;;;;4.23;100.00;99966.20;1913590;74;39658;-72
2021/11/02 05:50:02;;;;;;;48.77;45.07;;;;;;;4.23;100.00;99985.44;1902121;75;86358;-68
2021/11/02 06:01:10;;;;;;;45.53;42.03;;;;;;;3.95;100.00;99988.52;1906617;74;86429;-66
2021/11/02 06:06:40;;;;;;;47.90;44.20;;;;;;;3.97;100.00;99987.72;1915470;74;39595;-71
2021/11/02 06:29:21;;;;;;;46.67;43.20;;;;;;;3.90;100.00;99999.45;1921139;73;932722;-72
2021/11/02 06:31:55;;;;;;;46.97;43.30;;;;;;;3.90;100.00;100000.29;1904574;73;936668;-69
2021/11/02 06:34:36;;;;;;;46.35;42.53;;;;;;;3.88;100.00;99995.62;1815068;76;938704;-66
2021/11/02 06:40:05;;;;;;;47.47;43.67;;;;;;;3.93;100.00;100003.91;1858917;76;938966;-72
2021/11/02 06:42:51;;;;;;;47.13;43.40;;;;;;;3.89;100.00;100004.15;1843442;76;938853;-68
2021/11/02 06:51:25;;;;;;;46.57;42.87;;;;;;;3.94;100.00;99997.30;1919326;74;39713;-71
2021/11/02 06:57:09;;;;;;;48.30;44.73;;;;;;;3.70;100.00;99995.17;1902063;74;86003;-68
2021/11/02 07:20:04;;;;;;;46.93;43.50;;;;;;;3.54;100.00;100018.92;1903852;74;85631;-71
2021/11/02 07:25:34;;;;;;;49.27;45.27;;;;;;;3.74;100.00;100023.77;1916840;74;39553;-70
2021/11/02 08:45:56;;;;;;;45.20;41.57;;;;;;;5.12;100.00;100073.41;1832710;76;938917;-69
2021/11/02 08:48:22;;;;;;;42.93;39.60;;;;;;;5.14;100.00;100065.69;1849503;76;938990;-69
2021/11/02 08:50:53;;;;;;;43.50;39.97;;;;;;;5.25;100.00;100069.32;1874759;75;938809;-72
2021/11/02 08:53:27;;;;;;;45.57;42.07;;;;;;;5.36;100.00;100072.38;1859515;75;938940;-70
2021/11/02 08:55:57;;;;;;;43.27;39.80;;;;;;;5.49;100.00;100075.46;1877768;75;939054;-69
2021/11/02 08:58:29;;;;;;;44.63;40.85;;;;;;;5.56;100.00;100080.73;1874240;75;938747;-71
2021/11/02 09:01:01;;;;;;;44.80;41.10;;;;;;;5.65;100.00;100076.91;1895408;75;938951;-69
2021/11/02 09:03:33;;;;;;;44.30;40.70;;;;;;;5.80;100.00;100075.00;1882982;75;940877;-70
2021/11/02 09:06:07;;;;;;;45.30;41.50;;;;;;;5.90;100.00;100085.25;1871221;75;938962;-68
2021/11/02 09:08:41;;;;;;;42.75;39.48;;;;;;;6.08;100.00;100081.11;1855149;74;938775;-71
2021/11/02 09:11:14;;;;;;;43.53;39.53;;;;;;;6.28;100.00;100071.48;1883356;73;936817;-67
2021/11/02 09:13:47;;;;;;;45.20;41.50;;;;;;;6.33;100.00;100076.43;1851432;75;938770;-68
2021/11/02 09:16:19;;;;;;;42.60;39.10;;;;;;;6.50;100.00;100085.00;1865964;76;936866;-69
2021/11/02 09:18:50;;;;;;;42.50;39.03;;;;;;;6.66;100.00;100081.94;1887571;74;938764;-70
2021/11/02 09:24:18;;;;;;;43.60;40.00;;;;;;;6.92;100.00;100085.48;1918900;74;39504;-69
2021/11/02 09:29:44;;;;;;;45.50;41.60;;;;;;;7.00;100.00;100082.14;1913632;73;39779;-71
2021/11/02 09:35:09;;;;;;;46.53;42.63;;;;;;;7.17;100.00;100078.49;1878649;74;86454;-69
2021/11/02 09:41:08;;;;;;;45.80;42.10;;;;;;;7.33;100.00;100080.08;1915118;74;39646;-69
2021/11/02 09:44:24;;;;;;;47.62;43.55;;;;;;;7.28;100.00;100080.65;1851844;75;936863;-71
2021/11/02 09:47:34;;;;;;;47.65;43.63;;;;;;;7.32;100.00;100080.35;1851485;76;938893;-69
2021/11/02 09:57:29;;;;;;;47.63;43.93;;;;;;;8.02;100.00;100073.62;1904785;74;86184;-66
2021/11/02 10:03:32;;;;;;;47.47;43.73;;;;;;;8.30;100.00;100072.03;1903995;74;86267;-69
2021/11/02 10:09:29;;;;;;;53.83;49.53;;;;;;;8.43;100.00;100067.80;1916743;74;39608;-69
2021/11/02 10:12:03;;;;;;;53.07;48.83;;;;;;;8.44;100.00;100077.73;1863904;76;936599;-69
2021/11/02 10:14:48;;;;;;;50.23;46.13;;;;;;;8.35;100.00;100074.77;1851680;75;939011;-69
2021/11/02 10:20:48;;;;;;;48.90;45.07;;;;;;;8.43;100.00;100069.98;1914267;73;39765;-72
2021/11/02 10:26:26;;;;;;;46.17;42.67;;;;;;;8.65;100.00;100068.96;1919392;74;39501;-72
2021/11/02 10:32:26;;;;;;;46.57;42.80;;;;;;;8.64;100.00;100084.50;1917369;74;39423;-69
2021/11/02 10:38:05;;;;;;;46.33;42.73;;;;;;;9.08;100.00;100085.69;1905052;74;85459;-69
2021/11/02 10:44:22;;;;;;;45.87;42.20;;;;;;;9.45;100.00;100084.98;1901435;74;86724;-68
2021/11/02 10:50:07;;;;;;;45.17;41.60;;;;;;;9.36;100.00;100087.59;1901823;74;86725;-70
2021/11/02 10:55:49;;;;;;;42.47;39.10;;;;;;;9.62;100.00;100082.55;1915135;74;39602;-71
2021/11/02 11:01:29;;;;;;;44.87;41.50;;;;;;;9.95;100.00;100095.39;1915812;74;41595;-70
2021/11/02 11:07:04;;;;;;;43.33;39.93;;;;;;;9.82;100.00;100094.73;1840252;77;86144;-68
2021/11/02 11:12:33;;;;;;;43.27;39.97;;;;;;;10.03;100.00;100093.32;1885933;74;39584;-67
2021/11/02 11:18:21;;;;;;;44.00;40.73;;;;;;;10.22;100.00;100088.36;1882054;74;86433;-68
2021/11/02 11:24:07;;;;;;;43.37;40.10;;;;;;;10.30;100.00;100079.34;1814209;78;86281;-70
2021/11/02 11:29:33;;;;;;;43.40;40.60;;;;;;;10.30;100.00;100069.63;1915606;74;39670;-67
2021/11/02 11:34:58;;;;;;;42.60;39.70;;;;;;;10.57;100.00;100071.69;1905188;74;86385;-67
2021/11/02 11:40:27;;;;;;;40.30;37.80;;;;;;;10.49;100.00;100063.47;1889358;74;39631;-69
2021/11/02 11:45:54;;;;;;;44.17;41.30;;;;;;;10.76;100.00;100052.44;1901893;73;86386;-69
2021/11/02 11:51:24;;;;;;;43.07;40.27;;;;;;;10.71;100.00;100044.75;1918413;74;39550;-67
2021/11/02 11:57:00;;;;;;;44.53;41.43;;;;;;;10.84;100.00;100048.95;1891603;74;86386;-69
2021/11/02 12:02:28;;;;;;;43.70;40.47;;;;;;;10.63;100.00;100044.90;1916887;74;39817;-67
2021/11/02 12:08:04;;;;;;;39.63;37.10;;;;;;;10.88;100.00;100036.66;1893336;74;86559;-69
2021/11/02 12:13:26;;;;;;;40.80;38.10;;;;;;;10.81;100.00;100029.30;1916701;74;39650;-69
2021/11/02 12:19:20;;;;;;;40.27;37.60;;;;;;;10.80;100.00;100023.48;1919354;74;39447;-69
2021/11/02 12:24:46;;;;;;;40.37;37.70;;;;;;;11.24;100.00;100017.33;1901999;75;86563;-70
2021/11/02 12:30:15;;;;;;;38.80;36.50;;;;;;;11.22;100.00;100013.45;1919485;74;39565;-70
2021/11/02 12:35:53;;;;;;;38.67;36.37;;;;;;;11.06;100.00;99998.80;1902229;75;86498;-67
2021/11/02 12:41:27;;;;;;;36.80;34.60;;;;;;;10.84;100.00;99986.45;1916659;74;39677;-71
2021/11/02 12:47:01;;;;;;;40.63;37.47;;;;;;;10.93;100.00;99979.60;1891029;74;85785;-67
2021/11/02 12:52:31;;;;;;;41.40;38.70;;;;;;;10.84;100.00;99967.56;1916067;74;39529;-71
2021/11/02 12:58:00;;;;;;;40.47;38.17;;;;;;;10.99;100.00;99965.88;1904119;74;86476;-75
2021/11/02 13:03:35;;;;;;;38.23;35.93;;;;;;;11.18;100.00;99959.61;1916671;74;39578;-74
2021/11/02 13:09:03;;;;;;;34.30;32.33;;;;;;;11.44;100.00;99959.88;1903325;74;86454;-75
2021/11/02 13:14:38;;;;;;;33.13;31.23;;;;;;;11.47;100.00;99955.67;1916196;74;39615;-69
2021/11/02 13:20:12;;;;;;;35.60;33.33;;;;;;;11.64;100.00;99938.54;1785211;79;86266;-71
2021/11/02 13:25:43;;;;;;;32.67;30.70;;;;;;;11.68;100.00;99937.36;1913473;74;39769;-68
2021/11/02 13:31:08;;;;;;;32.17;30.33;;;;;;;11.78;100.00;99934.34;1903858;74;86352;-68
2021/11/02 13:36:32;;;;;;;27.37;25.97;;;;;;;11.92;100.00;99932.34;1915339;74;39631;-72
2021/11/02 13:41:59;;;;;;;24.70;23.30;;;;;;;12.08;100.00;99920.23;1891481;74;86138;-71
2021/11/02 13:47:32;;;;;;;28.23;26.77;;;;;;;12.13;100.00;99913.16;1915378;74;39514;-69
2021/11/02 13:52:56;;;;;;;29.53;27.93;;;;;;;12.29;100.00;99907.42;1891437;74;86267;-68
2021/11/02 13:58:21;;;;;;;25.83;24.40;;;;;;;12.35;100.00;99902.55;1917103;74;39648;-71
2021/11/02 14:03:50;;;;;;;24.13;23.00;;;;;;;12.55;100.00;99901.41;1901757;75;86326;-68
2021/11/02 14:09:18;;;;;;;24.90;23.60;;;;;;;12.38;100.00;99900.50;1892562;74;39632;-73
2021/11/02 14:14:42;;;;;;;22.23;21.17;;;;;;;12.39;100.00;99899.38;1913532;74;39785;-73
2021/11/02 14:20:15;;;;;;;24.10;22.80;;;;;;;12.39;100.00;99893.80;1919311;74;39412;-71
2021/11/02 14:25:40;;;;;;;22.67;21.57;;;;;;;12.43;100.00;99894.23;1882000;74;39563;-70
2021/11/02 14:31:05;;;;;;;21.03;19.93;;;;;;;12.13;100.00;99879.75;1825414;76;86058;-72
2021/11/02 14:36:44;;;;;;;21.53;20.53;;;;;;;12.36;100.00;99883.31;1867743;74;39547;-72
2021/11/02 14:42:09;;;;;;;29.63;27.70;;;;;;;12.17;100.00;99879.36;1863608;76;86502;-72
2021/11/02 14:47:39;;;;;;;31.73;29.93;;;;;;;12.07;100.00;99889.36;1914164;74;39572;-70
2021/11/02 14:53:34;;;;;;;26.83;25.40;;;;;;;11.46;100.00;99902.58;1873840;74;39525;-71
2021/11/02 14:59:03;;;;;;;23.30;22.10;;;;;;;11.86;100.00;99901.02;1836598;77;85631;-72
2021/11/02 15:05:05;;;;;;;32.50;30.90;;;;;;;11.83;100.00;99903.63;1837990;76;86347;-70
2021/11/02 15:10:30;;;;;;;37.20;35.30;;;;;;;11.39;100.00;99905.77;1885855;74;39429;-71
2021/11/02 15:15:57;;;;;;;42.70;40.30;;;;;;;10.91;100.00;99911.04;1893138;74;86147;-66
2021/11/02 15:21:34;;;;;;;48.13;45.10;;;;;;;10.44;100.00;99920.02;1915916;74;39668;-72
2021/11/02 15:27:01;;;;;;;47.57;44.57;;;;;;;10.11;100.00;99924.50;1905256;74;86000;-70
2021/11/02 15:32:29;;;;;;;47.43;44.40;;;;;;;10.26;100.00;99936.77;1916182;74;39710;-69
2021/11/02 15:37:56;;;;;;;49.13;45.73;;;;;;;10.21;100.00;99933.52;1905606;74;86799;-72
2021/11/02 15:43:21;;;;;;;46.20;43.10;;;;;;;9.88;100.00;99939.58;1917285;74;39619;-69
2021/11/02 15:48:46;;;;;;;45.97;42.90;;;;;;;9.91;100.00;99947.31;1901843;75;86958;-69
2021/11/02 15:54:16;;;;;;;46.87;43.47;;;;;;;9.78;100.00;99959.19;1919433;74;39441;-70
2021/11/02 15:59:40;;;;;;;48.70;45.20;;;;;;;9.76;100.00;99964.19;1868351;74;39630;-68
2021/11/02 16:05:12;;;;;;;46.80;43.60;;;;;;;10.04;100.00;99974.29;1785301;79;86070;-70
2021/11/02 16:10:37;;;;;;;48.20;44.90;;;;;;;9.57;100.00;99972.54;1914346;74;39515;-72
2021/11/02 16:16:03;;;;;;;48.03;44.77;;;;;;;9.30;100.00;99975.70;1825492;78;86690;-72
2021/11/02 16:24:15;;;;;;;47.80;44.70;;;;;;;9.00;100.00;99988.83;2006440;69;39465;-70
2021/11/02 16:26:45;;;;;;;48.13;44.83;;;;;;;8.94;100.00;100001.08;1936426;73;934842;-72
2021/11/02 16:29:17;;;;;;;47.20;44.00;;;;;;;8.97;100.00;100002.45;1871944;75;937179;-69
2021/11/02 16:31:47;;;;;;;48.13;44.73;;;;;;;8.86;100.00;100006.44;1871865;75;938844;-74
2021/11/02 16:34:19;;;;;;;48.00;44.80;;;;;;;8.80;100.00;100000.16;1871968;75;936821;-74
2021/11/02 16:36:50;;;;;;;47.87;44.67;;;;;;;8.73;100.00;100007.97;1871944;75;938949;-73
2021/11/02 16:39:23;;;;;;;47.23;43.78;;;;;;;8.79;100.00;100006.80;1859463;75;938814;-72
2021/11/02 16:41:55;;;;;;;47.27;44.07;;;;;;;8.99;100.00;100012.66;1895564;75;938735;-69
2021/11/02 16:44:31;;;;;;;45.75;42.45;;;;;;;9.03;100.00;100010.94;1882978;74;938758;-69
2021/11/02 16:47:09;;;;;;;46.00;42.70;;;;;;;9.10;100.00;100016.42;1895477;74;938969;-68
2021/11/02 16:49:40;;;;;;;49.60;45.87;;;;;;;8.98;100.00;100020.17;1883171;74;939160;-68
2021/11/02 16:52:12;;;;;;;48.10;44.50;;;;;;;8.60;100.00;100015.61;1895510;74;937016;-74
2021/11/02 16:54:44;;;;;;;47.10;43.75;;;;;;;8.48;100.00;100016.54;1868998;73;938765;-72
2021/11/02 16:57:17;;;;;;;46.00;42.67;;;;;;;8.32;100.00;100015.04;1845026;76;936933;-71
2021/11/02 17:02:49;;;;;;;48.13;44.33;;;;;;;8.29;100.00;100016.45;1880159;74;86083;-69
2021/11/02 17:08:16;;;;;;;46.50;43.13;;;;;;;8.30;100.00;100015.31;1918978;74;39631;-69
2021/11/02 17:13:41;;;;;;;47.13;43.50;;;;;;;7.85;100.00;100027.56;1873609;74;39453;-69
2021/11/02 17:19:10;;;;;;;46.53;43.20;;;;;;;7.79;100.00;100031.45;1777587;79;86357;-69
2021/11/02 17:24:34;;;;;;;45.97;42.47;;;;;;;7.92;100.00;100042.43;1915118;74;39523;-74
2021/11/02 17:30:03;;;;;;;46.17;42.77;;;;;;;7.49;100.00;100055.13;1891041;74;86708;-70
2021/11/02 17:35:29;;;;;;;46.43;42.80;;;;;;;7.32;100.00;100056.88;1915843;73;39710;-73
2021/11/02 17:41:16;;;;;;;46.50;42.73;;;;;;;7.63;100.00;100056.17;1807987;78;86395;-73
2021/11/02 17:46:42;;;;;;;50.30;46.33;;;;;;;7.73;100.00;100072.70;1913788;74;39698;-72
2021/11/02 17:52:09;;;;;;;49.97;45.73;;;;;;;7.86;100.00;100075.39;1890185;74;86203;-69
2021/11/02 17:57:43;;;;;;;50.23;45.80;;;;;;;7.87;100.00;100076.50;1867856;74;39497;-67
2021/11/02 18:03:12;;;;;;;50.83;46.63;;;;;;;7.59;100.00;100086.31;1952623;71;85415;-69
2021/11/02 18:08:39;;;;;;;51.30;46.97;;;;;;;7.32;100.00;100089.47;1914192;74;49270;-67
2021/11/02 18:14:05;;;;;;;48.23;44.43;;;;;;;7.35;100.00;100102.46;1862248;76;86707;-65
2021/11/02 18:19:31;;;;;;;51.70;47.50;;;;;;;7.22;100.00;100099.75;1915823;74;39865;-67
2021/11/02 18:24:57;;;;;;;51.30;47.43;;;;;;;7.20;100.00;100100.56;1904125;74;86481;-67
2021/11/02 18:30:31;;;;;;;49.73;46.13;;;;;;;7.03;100.00;100109.73;1916216;74;39503;-66
2021/11/02 18:35:57;;;;;;;48.33;44.60;;;;;;;6.94;100.00;100113.61;1876262;75;86546;-66
2021/11/02 18:41:26;;;;;;;47.53;44.03;;;;;;;7.01;100.00;100119.69;1916783;74;39796;-66
2021/11/02 18:46:53;;;;;;;48.17;44.43;;;;;;;6.84;100.00;100123.31;1901857;75;86582;-67
2021/11/02 18:52:20;;;;;;;50.13;45.93;;;;;;;6.97;100.00;100129.64;1918377;74;39473;-68
2021/11/02 18:57:45;;;;;;;48.43;44.63;;;;;;;6.68;100.00;100136.28;1913057;74;39771;-68
2021/11/02 19:03:13;;;;;;;49.67;45.77;;;;;;;6.39;100.00;100145.67;1872573;74;86803;-66
2021/11/02 19:08:57;;;;;;;48.67;44.87;;;;;;;6.36;100.00;100153.13;1917237;73;86252;-67
2021/11/02 19:14:25;;;;;;;48.57;44.87;;;;;;;6.16;100.00;100159.97;1917200;74;40293;-67
2021/11/02 19:19:51;;;;;;;50.13;46.23;;;;;;;6.31;100.00;100157.25;1901984;75;86337;-66
2021/11/02 19:25:20;;;;;;;51.00;46.80;;;;;;;6.44;100.00;100166.09;1917795;74;39762;-69
2021/11/02 19:30:46;;;;;;;51.47;47.37;;;;;;;6.30;100.00;100163.03;1872345;75;86364;-67
2021/11/02 19:36:10;;;;;;;52.63;48.33;;;;;;;6.34;100.00;100161.38;1783600;79;86925;-67
2021/11/02 19:41:34;;;;;;;53.07;48.80;;;;;;;6.64;100.00;100174.36;1915102;74;39669;-67
2021/11/02 19:46:59;;;;;;;51.57;47.53;;;;;;;6.02;100.00;100174.56;1891297;74;86614;-68
2021/11/02 19:52:29;;;;;;;53.07;48.77;;;;;;;6.07;100.00;100188.38;1915799;74;39540;-66
2021/11/02 19:57:54;;;;;;;51.73;47.73;;;;;;;5.91;100.00;100190.23;1907368;74;86670;-67
2021/11/02 20:03:20;;;;;;;51.43;47.33;;;;;;;6.14;100.00;100189.77;1917672;74;39857;-66
2021/11/02 20:08:47;;;;;;;53.13;48.83;;;;;;;6.03;100.00;100196.36;1872257;75;86258;-68
2021/11/02 20:14:24;;;;;;;51.27;47.03;;;;;;;6.13;100.00;100193.61;1917261;73;39540;-68
2021/11/02 20:19:50;;;;;;;53.27;48.77;;;;;;;6.06;100.00;100199.11;1902296;75;86289;-68
2021/11/02 20:25:14;;;;;;;49.67;45.67;;;;;;;5.95;100.00;100192.73;1919287;74;39844;-69
2021/11/02 20:30:42;;;;;;;51.20;47.10;;;;;;;5.81;100.00;100191.02;1867106;74;39622;-69
2021/11/02 20:36:09;;;;;;;50.97;46.67;;;;;;;5.56;100.00;100193.67;1904149;74;85844;-69
2021/11/02 20:41:37;;;;;;;51.00;47.00;;;;;;;5.44;100.00;100198.54;1914744;73;40098;-69
2021/11/02 20:47:06;;;;;;;52.63;48.43;;;;;;;5.31;100.00;100197.09;1944323;70;85516;-68
2021/11/02 20:52:33;;;;;;;51.57;47.43;;;;;;;5.50;100.00;100201.07;1915544;74;39402;-69
2021/11/02 20:57:57;;;;;;;50.23;46.40;;;;;;;5.68;100.00;100203.08;1903665;74;86223;-68
2021/11/02 21:03:27;;;;;;;52.97;48.73;;;;;;;5.66;100.00;100190.11;1917098;74;39663;-69
2021/11/02 21:08:56;;;;;;;53.90;49.60;;;;;;;5.70;100.00;100196.19;1901948;73;86258;-69
2021/11/02 21:14:23;;;;;;;48.90;45.10;;;;;;;5.79;100.00;100199.25;1917072;74;39597;-70
2021/11/02 21:19:50;;;;;;;54.67;50.33;;;;;;;5.56;100.00;100205.23;1902132;75;86111;-69
2021/11/02 21:25:14;;;;;;;52.83;48.43;;;;;;;5.58;100.00;100204.40;1919102;74;39681;-71
2021/11/02 21:30:41;;;;;;;51.33;47.27;;;;;;;5.82;100.00;100211.11;1872983;74;39603;-70
2021/11/02 21:36:07;;;;;;;53.63;49.33;;;;;;;5.72;100.00;100216.59;1902683;74;86352;-68
2021/11/02 21:41:35;;;;;;;53.60;49.10;;;;;;;5.66;100.00;100213.52;1915461;74;39630;-70
2021/11/02 21:47:10;;;;;;;54.37;49.87;;;;;;;5.94;100.00;100216.73;1785245;79;86792;-68
2021/11/02 21:49:45;;;;;;;55.53;51.13;;;;;;;5.88;100.00;100222.48;1733252;80;936842;-67
2021/11/02 21:55:36;;;;;;;52.80;48.50;;;;;;;5.95;100.00;100211.47;1932548;71;39520;-69
2021/11/02 22:01:03;;;;;;;54.03;49.67;;;;;;;5.58;100.00;100219.55;1783036;79;86714;-68
2021/11/02 22:06:29;;;;;;;51.90;47.80;;;;;;;5.39;100.00;100214.48;1915957;74;39766;-68
2021/11/02 22:11:54;;;;;;;53.50;49.10;;;;;;;5.27;100.00;100213.87;1894799;74;86804;-68
2021/11/02 22:17:37;;;;;;;53.13;48.77;;;;;;;5.16;100.00;100212.70;1986324;71;39550;-68
2021/11/02 22:23:03;;;;;;;52.37;48.00;;;;;;;5.30;100.00;100218.86;1773236;80;85593;-70
2021/11/02 22:28:27;;;;;;;53.77;49.40;;;;;;;5.17;100.00;100227.59;1916305;74;39529;-69
2021/11/02 22:33:53;;;;;;;55.07;50.73;;;;;;;5.15;100.00;100227.55;1901938;73;86821;-70
2021/11/02 22:39:19;;;;;;;53.50;48.90;;;;;;;5.29;100.00;100233.72;1884157;74;39618;-68
2021/11/02 22:47:39;;;;;;;53.97;49.60;;;;;;;5.33;100.00;100231.26;1994551;69;39455;-70
2021/11/02 22:53:09;;;;;;;53.87;49.57;;;;;;;5.10;100.00;100226.13;1902132;74;86457;-69
2021/11/02 22:58:35;;;;;;;55.33;50.70;;;;;;;4.98;100.00;100231.83;1914795;74;39563;-67
2021/11/02 23:04:00;;;;;;;55.20;50.50;;;;;;;5.11;100.00;100226.42;1890820;74;86568;-68
2021/11/02 23:09:45;;;;;;;59.20;54.33;;;;;;;5.36;100.00;100220.53;1963318;72;86484;-68
2021/11/02 23:15:13;;;;;;;60.90;56.23;;;;;;;5.35;100.00;100223.55;1919573;74;39484;-67
2021/11/02 23:20:36;;;;;;;59.53;54.87;;;;;;;5.21;100.00;100219.08;1914393;74;39759;-67
2021/11/02 23:26:24;;;;;;;59.43;54.83;;;;;;;4.95;100.00;100229.08;1839923;76;86784;-68
2021/11/02 23:31:52;;;;;;;58.00;53.50;;;;;;;5.04;100.00;100230.80;1902008;75;86817;-67
2021/11/02 23:37:18;;;;;;;59.10;54.53;;;;;;;5.09;100.00;100232.21;1892174;74;39523;-68
2021/11/02 23:43:04;;;;;;;60.53;55.87;;;;;;;4.78;100.00;100236.64;1872860;76;86446;-67
2021/11/02 23:48:30;;;;;;;58.83;54.47;;;;;;;4.70;100.00;100246.75;1873366;74;39567;-68
2021/11/02 23:54:18;;;;;;;58.00;53.50;;;;;;;4.51;100.00;100256.45;1799011;78;86608;-66
2021/11/02 23:59:43;;;;;;;60.30;55.80;;;;;;;4.44;100.00;100247.59;1913531;74;39423;-68
